Time;durP1;ratioP1;P1;durP2;ratioP2;P2;SDS_P1;SDS_P2;PMS_P1;PMS_P2;Temp;Humidity;BMP_temperature;BMP_pressure;BME280_temperature;BME280_humidity;BME280_pressure;Samples;Min_cycle;Max_cycle;Signal;HPM_P1;HPM_P2
2022/11/16 00:05:11;;;;;;;0.20;0.03;;;19.10;99.90;;;;;;25534442;23;20397;-70
2022/11/16 00:15:16;;;;;;;0.20;0.00;;;19.00;99.90;;;;;;25534818;23;20370;-71
2022/11/16 00:25:20;;;;;;;0.20;0.10;;;18.90;99.90;;;;;;25535898;23;20392;-71
2022/11/16 00:35:26;;;;;;;0.20;0.00;;;19.00;99.90;;;;;;25535467;23;20358;-70
2022/11/16 00:45:29;;;;;;;0.20;0.00;;;19.00;99.90;;;;;;25535868;23;20377;-71
2022/11/16 00:55:36;;;;;;;0.20;0.00;;;19.10;99.90;;;;;;25534604;23;20370;-72
2022/11/16 01:05:40;;;;;;;0.20;0.00;;;19.20;99.90;;;;;;25511039;23;20405;-72
2022/11/16 01:15:49;;;;;;;0.20;0.00;;;19.00;99.90;;;;;;25510118;23;20404;-71
2022/11/16 01:25:57;;;;;;;0.20;0.00;;;18.90;99.90;;;;;;25543188;23;20545;-72
2022/11/16 01:36:02;;;;;;;0.20;0.00;;;18.90;99.90;;;;;;25545318;23;20380;-71
2022/11/16 01:46:06;;;;;;;0.20;0.10;;;18.90;99.90;;;;;;25521548;23;20373;-71
2022/11/16 01:56:11;;;;;;;0.20;0.00;;;18.90;99.90;;;;;;25547171;23;20380;-72
2022/11/16 02:06:33;;;;;;;0.20;0.00;;;18.90;99.90;;;;;;25547645;23;20457;-71
2022/11/16 02:16:50;;;;;;;0.20;0.00;;;18.90;99.90;;;;;;25522250;23;20366;-72
2022/11/16 02:27:21;;;;;;;0.20;0.00;;;18.90;99.90;;;;;;25545499;23;20373;-72
2022/11/16 02:37:28;;;;;;;0.20;0.00;;;18.50;99.90;;;;;;25542924;23;20365;-72
2022/11/16 02:47:34;;;;;;;0.20;0.10;;;18.60;99.90;;;;;;25540093;23;20392;-72
2022/11/16 02:57:46;;;;;;;0.20;0.00;;;18.40;99.90;;;;;;25538915;23;20380;-72
2022/11/16 03:07:55;;;;;;;0.20;0.00;;;18.40;99.90;;;;;;25536863;23;20380;-71
2022/11/16 03:18:01;;;;;;;0.20;0.03;;;18.50;99.90;;;;;;25511993;23;20362;-71
2022/11/16 03:28:12;;;;;;;0.20;0.00;;;18.40;99.90;;;;;;25538832;23;20385;-71
2022/11/16 03:38:21;;;;;;;0.20;0.10;;;18.30;99.90;;;;;;25536089;23;20369;-72
2022/11/16 03:48:25;;;;;;;0.20;0.00;;;18.20;99.90;;;;;;25537157;23;20377;-72
2022/11/16 03:58:30;;;;;;;0.20;0.03;;;18.30;99.90;;;;;;25534650;23;20377;-72
2022/11/16 04:29:30;;;;;;;0.20;0.10;;;18.40;99.90;;;;;;25423068;23;20381;-71
2022/11/16 04:39:35;;;;;;;0.20;0.10;;;17.90;99.90;;;;;;25534864;23;20366;-74
2022/11/16 04:49:39;;;;;;;0.20;0.00;;;17.50;99.90;;;;;;25535373;23;20382;-72
2022/11/16 04:59:44;;;;;;;0.20;0.00;;;17.30;99.90;;;;;;25529428;23;20393;-73
2022/11/16 05:09:49;;;;;;;0.20;0.10;;;17.50;99.90;;;;;;25525738;23;20420;-73
2022/11/16 05:30:16;;;;;;;0.20;0.10;;;17.60;99.90;;;;;;25531577;23;20456;-72
2022/11/16 05:40:21;;;;;;;0.20;0.00;;;17.70;99.90;;;;;;25531656;23;20397;-72
2022/11/16 05:50:25;;;;;;;0.20;0.00;;;17.10;99.90;;;;;;25533550;23;20384;-72
2022/11/16 06:00:30;;;;;;;0.20;0.10;;;16.90;99.90;;;;;;25532396;23;20366;-72
2022/11/16 06:10:35;;;;;;;0.20;0.00;;;17.40;99.90;;;;;;25534583;23;20369;-72
2022/11/16 06:20:40;;;;;;;0.20;0.10;;;17.50;99.90;;;;;;25538813;23;20376;-72
2022/11/16 06:30:44;;;;;;;0.20;0.00;;;17.60;99.90;;;;;;25538916;23;20821;-72
2022/11/16 06:40:52;;;;;;;0.20;0.10;;;17.60;99.90;;;;;;25536107;23;20372;-73
2022/11/16 06:50:56;;;;;;;0.20;0.10;;;17.40;99.90;;;;;;25507208;23;20405;-73
2022/11/16 07:01:11;;;;;;;0.20;0.10;;;17.50;99.90;;;;;;25526822;23;20381;-71
2022/11/16 07:11:15;;;;;;;0.20;0.03;;;17.20;99.90;;;;;;25531222;23;20397;-72
2022/11/16 07:21:20;;;;;;;0.20;0.07;;;16.60;99.90;;;;;;25534217;23;20454;-72
2022/11/16 07:31:24;;;;;;;0.20;0.10;;;16.50;99.90;;;;;;25508438;23;20388;-74
2022/11/16 07:41:29;;;;;;;0.20;0.00;;;16.50;99.90;;;;;;25510068;23;20392;-73
2022/11/16 07:51:33;;;;;;;0.20;0.00;;;16.80;99.90;;;;;;25533543;23;20392;-71
2022/11/16 08:01:38;;;;;;;0.20;0.00;;;17.20;99.90;;;;;;25505548;23;20423;-73
2022/11/16 08:11:45;;;;;;;0.20;0.10;;;18.00;99.90;;;;;;25505547;23;20370;-73
2022/11/16 08:21:50;;;;;;;0.20;0.00;;;18.60;99.90;;;;;;25527692;23;20377;-73
2022/11/16 08:31:54;;;;;;;0.20;0.00;;;18.80;99.90;;;;;;25531095;23;20377;-73
2022/11/16 08:41:59;;;;;;;0.20;0.00;;;18.50;99.90;;;;;;25532161;23;20370;-73
2022/11/16 08:52:04;;;;;;;0.20;0.00;;;18.50;99.90;;;;;;25532812;23;20381;-72
2022/11/16 09:02:09;;;;;;;0.20;0.05;;;18.70;99.90;;;;;;25530524;23;20418;-72
2022/11/16 09:12:13;;;;;;;0.20;0.10;;;19.00;99.90;;;;;;25531066;23;20373;-73
2022/11/16 09:22:19;;;;;;;0.20;0.00;;;19.30;99.90;;;;;;25529312;23;20431;-73
2022/11/16 09:32:22;;;;;;;0.20;0.00;;;19.60;99.90;;;;;;25531709;23;20396;-70
2022/11/16 09:42:40;;;;;;;0.20;0.00;;;19.70;99.90;;;;;;25478320;23;20476;-73
2022/11/16 09:52:48;;;;;;;0.20;0.00;;;19.90;99.90;;;;;;25535724;23;20433;-72
2022/11/16 10:03:02;;;;;;;0.20;0.00;;;19.70;99.90;;;;;;25534841;23;20380;-73
2022/11/16 10:13:19;;;;;;;0.20;0.00;;;20.20;99.90;;;;;;25534708;23;20373;-73
2022/11/16 10:23:34;;;;;;;0.20;0.00;;;20.30;99.90;;;;;;25507569;23;20385;-74
2022/11/16 10:33:42;;;;;;;0.20;0.00;;;21.00;99.90;;;;;;25536582;23;20400;-71
2022/11/16 10:43:49;;;;;;;0.20;0.10;;;19.90;99.90;;;;;;25533508;23;20381;-76
2022/11/16 10:53:54;;;;;;;0.20;0.00;;;19.90;99.90;;;;;;25534847;23;20420;-75
2022/11/16 11:04:18;;;;;;;0.20;0.00;;;19.90;99.90;;;;;;25534719;23;20374;-75
2022/11/16 11:14:22;;;;;;;0.20;0.00;;;19.40;99.90;;;;;;25532821;23;20441;-76
2022/11/16 11:24:28;;;;;;;0.20;0.00;;;20.20;99.90;;;;;;25534717;23;20373;-76
2022/11/16 11:34:49;;;;;;;0.20;0.00;;;19.70;99.90;;;;;;25483150;23;20376;-71
2022/11/16 11:45:00;;;;;;;0.20;0.07;;;19.60;99.90;;;;;;25529370;23;20369;-74
2022/11/16 11:55:06;;;;;;;0.20;0.00;;;19.70;99.90;;;;;;25505673;23;20361;-70
2022/11/16 12:05:34;;;;;;;0.20;0.00;;;21.70;99.90;;;;;;25505732;23;20449;-72
2022/11/16 12:15:49;;;;;;;0.20;0.05;;;22.90;99.90;;;;;;25529664;23;20407;-73
2022/11/16 12:26:02;;;;;;;0.20;0.00;;;22.00;99.90;;;;;;25506679;23;20408;-74
2022/11/16 12:36:15;;;;;;;0.20;0.00;;;21.90;99.90;;;;;;25506919;23;20380;-73
2022/11/16 12:46:29;;;;;;;0.20;0.00;;;21.80;99.90;;;;;;25529547;23;20369;-74
2022/11/16 12:56:44;;;;;;;0.20;0.00;;;21.40;99.90;;;;;;25529592;23;20384;-74
2022/11/16 13:06:57;;;;;;;0.20;0.10;;;21.10;99.90;;;;;;25529097;23;20473;-76
2022/11/16 13:17:02;;;;;;;0.20;0.00;;;20.60;99.90;;;;;;25501873;23;20393;-76
2022/11/16 13:27:32;;;;;;;0.20;0.00;;;20.70;99.90;;;;;;25502015;23;20388;-74
2022/11/16 13:37:46;;;;;;;0.20;0.00;;;20.90;99.90;;;;;;25517696;23;20389;-73
2022/11/16 13:47:53;;;;;;;0.20;0.00;;;20.90;99.90;;;;;;25522420;23;20476;-74
2022/11/16 13:57:59;;;;;;;0.20;0.00;;;21.50;99.90;;;;;;25526890;23;20377;-74
2022/11/16 14:08:51;;;;;;;0.20;0.00;;;23.10;99.90;;;;;;25525586;23;20412;-73
2022/11/16 14:19:00;;;;;;;0.20;0.00;;;25.90;99.90;;;;;;25520570;23;20373;-74
2022/11/16 14:29:40;;;;;;;0.20;0.00;;;24.60;99.90;;;;;;25503830;23;20412;-75
2022/11/16 14:39:45;;;;;;;0.20;0.00;;;23.70;99.90;;;;;;25498811;23;20388;-73
2022/11/16 14:49:50;;;;;;;0.20;0.00;;;22.20;99.90;;;;;;25534945;23;20376;-74
2022/11/16 15:00:08;;;;;;;0.20;0.00;;;23.30;99.90;;;;;;25507599;23;20385;-73
2022/11/16 15:10:16;;;;;;;0.20;0.00;;;23.60;99.90;;;;;;25531386;23;20380;-73
2022/11/16 15:20:24;;;;;;;0.20;0.00;;;23.10;99.90;;;;;;25530013;23;20377;-70
2022/11/16 15:30:33;;;;;;;0.20;0.00;;;22.00;99.90;;;;;;25527940;23;20377;-72
2022/11/16 15:40:37;;;;;;;0.20;0.00;;;21.60;99.90;;;;;;25529875;23;20397;-73
2022/11/16 15:50:55;;;;;;;0.20;0.00;;;20.70;99.90;;;;;;25527476;23;20388;-72
2022/11/16 16:01:07;;;;;;;0.20;0.00;;;20.20;99.90;;;;;;25527486;23;20433;-73
2022/11/16 16:11:27;;;;;;;0.20;0.00;;;19.90;99.90;;;;;;25527795;23;21132;-73
2022/11/16 16:21:43;;;;;;;0.20;0.10;;;19.70;99.90;;;;;;25498979;23;20373;-73
2022/11/16 16:31:48;;;;;;;0.20;0.00;;;19.50;99.90;;;;;;25476908;23;20412;-72
2022/11/16 16:41:52;;;;;;;0.20;0.00;;;19.30;99.90;;;;;;25527603;23;20380;-75
2022/11/16 16:51:57;;;;;;;0.20;0.00;;;19.00;99.90;;;;;;25530676;23;20389;-73
2022/11/16 17:02:01;;;;;;;0.20;0.00;;;18.80;99.90;;;;;;25530670;23;20374;-74
2022/11/16 17:12:06;;;;;;;0.20;0.10;;;18.80;99.90;;;;;;25526880;23;20377;-72
2022/11/16 17:22:11;;;;;;;0.20;0.00;;;18.80;99.90;;;;;;25526085;23;20373;-70
2022/11/16 17:32:19;;;;;;;0.20;0.10;;;18.60;99.90;;;;;;25523829;23;20393;-72
2022/11/16 17:42:23;;;;;;;0.20;0.07;;;18.60;99.90;;;;;;25522760;23;20377;-73
2022/11/16 17:52:28;;;;;;;0.20;0.00;;;18.30;99.90;;;;;;25522350;23;20369;-73
2022/11/16 18:02:32;;;;;;;0.20;0.10;;;18.20;99.90;;;;;;25498179;23;20365;-72
2022/11/16 18:12:39;;;;;;;0.20;0.00;;;18.00;99.90;;;;;;25530703;23;20377;-73
2022/11/16 18:22:43;;;;;;;0.20;0.10;;;18.00;99.90;;;;;;25534525;23;20361;-72
2022/11/16 18:32:51;;;;;;;0.20;0.00;;;17.90;99.90;;;;;;25506798;23;20418;-72
2022/11/16 18:42:55;;;;;;;0.20;0.00;;;17.90;99.90;;;;;;25509108;23;20370;-72
2022/11/16 18:53:01;;;;;;;0.20;0.00;;;17.90;99.90;;;;;;25504124;23;20377;-71
2022/11/16 19:03:05;;;;;;;0.20;0.10;;;17.80;99.90;;;;;;25505802;23;20369;-71
2022/11/16 19:13:15;;;;;;;0.20;0.00;;;17.80;99.90;;;;;;25507626;23;20412;-72
2022/11/16 19:23:20;;;;;;;0.20;0.10;;;18.10;99.90;;;;;;25503459;23;20369;-71
2022/11/16 19:33:25;;;;;;;0.20;0.00;;;18.00;99.90;;;;;;25532190;23;20455;-69
2022/11/16 19:43:30;;;;;;;0.20;0.10;;;18.00;99.90;;;;;;25506461;23;20464;-72
2022/11/16 19:53:37;;;;;;;0.20;0.00;;;18.00;99.90;;;;;;25504004;23;20374;-71
2022/11/16 20:03:41;;;;;;;0.20;0.00;;;17.90;99.90;;;;;;25527378;23;20547;-72
2022/11/16 20:13:48;;;;;;;0.20;0.10;;;18.00;99.90;;;;;;25528629;23;20377;-74
2022/11/16 20:23:56;;;;;;;0.20;0.10;;;17.90;99.90;;;;;;25528853;23;20376;-73
2022/11/16 20:34:13;;;;;;;0.20;0.10;;;18.00;99.90;;;;;;25498603;23;20405;-72
2022/11/16 20:44:20;;;;;;;0.20;0.10;;;18.00;99.90;;;;;;25501261;23;20437;-71
2022/11/16 20:54:26;;;;;;;0.20;0.00;;;18.20;99.90;;;;;;25528224;23;20482;-71
2022/11/16 21:04:30;;;;;;;0.20;0.00;;;18.00;99.90;;;;;;25527772;23;20376;-70
2022/11/16 21:14:36;;;;;;;0.20;0.10;;;18.00;99.90;;;;;;25527894;23;20412;-71
2022/11/16 21:24:40;;;;;;;0.20;0.00;;;18.00;99.90;;;;;;25528489;23;20369;-72
2022/11/16 21:34:47;;;;;;;0.20;0.05;;;17.90;99.90;;;;;;25528537;23;20375;-71
2022/11/16 21:44:51;;;;;;;0.20;0.10;;;17.90;99.90;;;;;;25505200;23;20384;-71
2022/11/16 21:54:59;;;;;;;0.20;0.10;;;18.00;99.90;;;;;;25528427;23;20361;-72
2022/11/16 22:15:56;;;;;;;0.20;0.10;;;17.70;99.90;;;;;;25535939;23;20369;-70
2022/11/16 22:26:04;;;;;;;0.20;0.00;;;17.70;99.90;;;;;;25508789;23;20381;-72
2022/11/16 22:36:10;;;;;;;0.20;0.10;;;17.70;99.90;;;;;;25487489;23;20366;-73
2022/11/16 22:46:14;;;;;;;0.20;0.10;;;17.60;99.90;;;;;;25533177;23;20373;-71
2022/11/16 22:56:19;;;;;;;0.20;0.10;;;17.60;99.90;;;;;;25537243;23;20368;-70
2022/11/16 23:06:26;;;;;;;0.20;0.10;;;17.70;99.90;;;;;;25512621;23;20381;-71
2022/11/16 23:16:31;;;;;;;0.20;0.10;;;18.00;99.90;;;;;;25513540;23;20376;-71
2022/11/16 23:37:03;;;;;;;0.20;0.00;;;18.30;99.90;;;;;;25539487;23;20389;-71
2022/11/16 23:47:07;;;;;;;0.20;0.10;;;18.30;99.90;;;;;;25535891;23;20385;-72
2022/11/16 23:57:13;;;;;;;0.20;0.10;;;18.40;99.90;;;;;;25537490;23;20373;-71
